createdAt,value
2023-04-11T00:02:14.410Z,100
2023-04-11T00:08:04.792Z,100
2023-04-11T00:13:56.921Z,99.8
2023-04-11T00:19:51.728Z,96.4
2023-04-11T00:25:42.282Z,100
2023-04-11T00:31:33.866Z,100
2023-04-11T00:37:27.643Z,98.8
2023-04-11T00:43:19.648Z,96.4
2023-04-11T00:49:11.722Z,93.5
2023-04-11T00:55:03.167Z,92
2023-04-11T01:00:54.703Z,92.8
2023-04-11T01:06:46.432Z,91.7
2023-04-11T01:12:38.257Z,91.9
2023-04-11T01:18:30.847Z,91.5
2023-04-11T01:24:23.296Z,88.6
2023-04-11T01:30:14.776Z,88.5
2023-04-11T01:36:07.974Z,88.3
2023-04-11T01:42:00.412Z,87.6
2023-04-11T01:47:52.944Z,88
2023-04-11T01:53:45.928Z,86.4
2023-04-11T01:59:36.813Z,86.6
2023-04-11T02:05:28.505Z,85.9
2023-04-11T02:11:20.757Z,86.2
2023-04-11T02:17:13.187Z,87.2
2023-04-11T02:23:06.045Z,86.1
2023-04-11T02:28:58.832Z,85.8
2023-04-11T02:34:52.734Z,86.2
2023-04-11T02:40:42.481Z,84.1
2023-04-11T02:46:34.012Z,84.4
2023-04-11T02:52:26.033Z,83.6
2023-04-11T02:58:20.582Z,82.8
2023-04-11T03:04:12.709Z,83.3
2023-04-11T03:10:05.152Z,84
2023-04-11T03:15:56.807Z,87.7
2023-04-11T03:21:49.097Z,88.6
2023-04-11T03:27:41.112Z,92.3
2023-04-11T03:33:33.118Z,94.4
2023-04-11T03:39:24.116Z,86
2023-04-11T03:45:16.337Z,85.6
2023-04-11T03:51:08.687Z,84.6
2023-04-11T03:57:00.665Z,83.7
2023-04-11T04:02:54.570Z,83.6
2023-04-11T04:08:47.293Z,82.5
2023-04-11T04:14:39.295Z,82.7
2023-04-11T04:20:33.029Z,84
2023-04-11T04:26:26.334Z,83.3
2023-04-11T07:46:52.892Z,76
2023-04-11T16:47:56.226Z,45.6
2023-04-11T18:28:18.106Z,55.8
2023-04-11T18:34:12.631Z,56.3
2023-04-11T18:40:13.017Z,55.8
2023-04-11T18:46:06.948Z,55.3
2023-04-11T18:52:03.171Z,55.2
2023-04-11T18:58:15.631Z,55.8
2023-04-11T19:04:18.196Z,57.4
2023-04-11T19:10:12.416Z,59.1
2023-04-11T19:22:01.774Z,59.1
2023-04-11T19:34:11.161Z,60.9
2023-04-11T19:40:21.229Z,63.6
2023-04-11T20:45:59.769Z,67.3
2023-04-11T21:09:51.941Z,66.9
2023-04-11T21:33:35.318Z,63
2023-04-11T21:39:28.570Z,63.4
2023-04-11T21:45:23.335Z,63.2
2023-04-11T21:51:21.066Z,63.8
2023-04-11T21:57:18.076Z,64.4
2023-04-11T22:03:14.946Z,66.3
2023-04-11T22:21:12.295Z,65.9
2023-04-11T22:27:15.111Z,66.8
2023-04-11T22:33:09.361Z,67.1
2023-04-11T22:39:01.285Z,68.2
2023-04-11T22:44:53.827Z,69.1
2023-04-11T22:50:47.578Z,68.6
2023-04-11T22:56:40.058Z,69.1
2023-04-11T23:02:32.760Z,69
2023-04-11T23:08:25.354Z,68.4
2023-04-11T23:14:18.175Z,70.1
2023-04-11T23:20:09.902Z,70.3
2023-04-11T23:26:04.188Z,70.5
2023-04-11T23:31:54.783Z,69.9
2023-04-11T23:37:48.576Z,71.2
2023-04-11T23:43:39.072Z,71.8
2023-04-11T23:49:33.977Z,70.9
2023-04-11T23:55:25.050Z,71
